Aérodrome :
LOGIN :

S'inscrire | Disclaimer

   EN    FR    IT 

 










Légende :    VFR   VFR Marginal   IFR   IFR Intensif   IFR Très Intensif
Visi : 
Plafond : 
>= 8 km
>= 3000ft
5 à 8 km
1000 à 3000 ft
1500m à 5 km
500 à 1000 ft
800 à 1500m
200 à 500 ft
< 800m
< 200 ft
Symboles :   Orages  Brouillard  Fortes neiges  Fortes précipitations  Vent > 20 kt
SIGMETs :   Divers  Orages  Givrage  Turbulence  Onde Orograph.  Cendres Volcan.







- Altitude de l'aérodrome : 1276 ft
- Code IATA : STR


EDDS - Stuttgart

DERNIER METAR :
  • 231550Z 36005KT 320V050 CAVOK 18/09 Q1021 NOSIG

METARs EXPIRÉS :
  • 231520Z 36006KT 320V020 9999 FEW040 18/08 Q1021 NOSIG
  • 231450Z 36006KT 320V050 9999 FEW040 18/10 Q1021 NOSIG
  • 231420Z 34006KT 300V050 9999 FEW040 18/09 Q1021 NOSIG
  • 231350Z 01007KT 350V050 9999 FEW040 18/10 Q1021 NOSIG
  • 231320Z 35006KT 320V020 9999 FEW040 19/10 Q1021 NOSIG

TAF TAF EDDS
Valide du 23 à 12h jusqu'au 24 à 12h UTC


231100Z 2312/2412 02005KT 9999 FEW045
PROB30
TEMPO 2313/2317 SHRA BKN025TCU
BECMG 2317/2320 VRB03KT
TEMPO 2403/2409 3500 BR
PROB30
TEMPO 2404/2408 0200 FG BKN001
Pas de NOTAMs connus pour ce terrain.



MET'MAP, la Météo Aéronautique d'un coup d'oeil ! - Copyright ORBIFLY Décembre 2007 - Disclaimer

ORBIFLY MET'MAP TEAM :

Programmation & Développement : Alexandra Zaïnal
Conception & Développement : Baudouin d'Aumeries
Co-Programmation & Développement : Marc-Olivier Méhu
Soutien technique & logistique : Manuel Goepfert

Contact : metmap@orbifly.com




SOURCES & CREDITS :

   NOAA